sensor_id;sensor_type;location;lat;lon;timestamp;P1;durP1;ratioP1;P2;durP2;ratioP2
2766;SDS011;1391;46.742;11.636;2022-12-20T00:00:55;10.47;;;4.80;;
2766;SDS011;1391;46.742;11.636;2022-12-20T00:03:22;7.97;;;5.27;;
2766;SDS011;1391;46.742;11.636;2022-12-20T00:05:50;8.20;;;5.00;;
2766;SDS011;1391;46.742;11.636;2022-12-20T00:08:17;9.43;;;5.33;;
2766;SDS011;1391;46.742;11.636;2022-12-20T00:10:44;9.73;;;5.13;;
2766;SDS011;1391;46.742;11.636;2022-12-20T00:13:12;12.00;;;5.30;;
2766;SDS011;1391;46.742;11.636;2022-12-20T00:15:39;8.10;;;5.00;;
2766;SDS011;1391;46.742;11.636;2022-12-20T00:18:08;11.80;;;6.07;;
2766;SDS011;1391;46.742;11.636;2022-12-20T00:20:35;8.23;;;5.33;;
2766;SDS011;1391;46.742;11.636;2022-12-20T00:23:02;10.20;;;4.60;;
2766;SDS011;1391;46.742;11.636;2022-12-20T00:25:30;7.13;;;4.57;;
2766;SDS011;1391;46.742;11.636;2022-12-20T00:27:57;9.10;;;4.60;;
2766;SDS011;1391;46.742;11.636;2022-12-20T00:30:26;9.27;;;5.00;;
2766;SDS011;1391;46.742;11.636;2022-12-20T00:32:53;12.17;;;5.10;;
2766;SDS011;1391;46.742;11.636;2022-12-20T00:35:22;7.17;;;4.37;;
2766;SDS011;1391;46.742;11.636;2022-12-20T00:37:49;7.53;;;5.13;;
2766;SDS011;1391;46.742;11.636;2022-12-20T00:40:16;9.83;;;4.30;;
2766;SDS011;1391;46.742;11.636;2022-12-20T00:42:43;9.23;;;4.60;;
2766;SDS011;1391;46.742;11.636;2022-12-20T00:45:11;8.37;;;4.60;;
2766;SDS011;1391;46.742;11.636;2022-12-20T00:47:38;7.80;;;5.10;;
2766;SDS011;1391;46.742;11.636;2022-12-20T00:50:06;9.10;;;4.93;;
2766;SDS011;1391;46.742;11.636;2022-12-20T00:52:35;8.77;;;4.80;;
2766;SDS011;1391;46.742;11.636;2022-12-20T00:55:02;6.67;;;4.80;;
2766;SDS011;1391;46.742;11.636;2022-12-20T00:57:30;6.63;;;5.07;;
2766;SDS011;1391;46.742;11.636;2022-12-20T00:59:57;9.07;;;5.93;;
2766;SDS011;1391;46.742;11.636;2022-12-20T01:02:25;8.33;;;4.90;;
2766;SDS011;1391;46.742;11.636;2022-12-20T01:04:52;7.77;;;5.10;;
2766;SDS011;1391;46.742;11.636;2022-12-20T01:07:19;9.20;;;5.03;;
2766;SDS011;1391;46.742;11.636;2022-12-20T01:09:50;9.43;;;5.53;;
2766;SDS011;1391;46.742;11.636;2022-12-20T01:12:17;8.07;;;5.10;;
2766;SDS011;1391;46.742;11.636;2022-12-20T01:14:45;7.37;;;4.60;;
2766;SDS011;1391;46.742;11.636;2022-12-20T01:17:12;7.60;;;4.83;;
2766;SDS011;1391;46.742;11.636;2022-12-20T01:19:39;11.77;;;5.43;;
2766;SDS011;1391;46.742;11.636;2022-12-20T01:22:06;9.03;;;5.40;;
2766;SDS011;1391;46.742;11.636;2022-12-20T01:24:34;9.13;;;4.63;;
2766;SDS011;1391;46.742;11.636;2022-12-20T01:27:02;8.47;;;4.53;;
2766;SDS011;1391;46.742;11.636;2022-12-20T01:29:29;11.23;;;5.40;;
2766;SDS011;1391;46.742;11.636;2022-12-20T01:31:57;10.83;;;5.50;;
2766;SDS011;1391;46.742;11.636;2022-12-20T01:34:24;9.90;;;4.97;;
2766;SDS011;1391;46.742;11.636;2022-12-20T01:36:51;7.90;;;4.60;;
2766;SDS011;1391;46.742;11.636;2022-12-20T01:39:18;10.53;;;4.97;;
2766;SDS011;1391;46.742;11.636;2022-12-20T01:41:46;10.00;;;4.97;;
2766;SDS011;1391;46.742;11.636;2022-12-20T01:47:21;9.47;;;5.03;;
2766;SDS011;1391;46.742;11.636;2022-12-20T01:49:51;10.10;;;5.63;;
2766;SDS011;1391;46.742;11.636;2022-12-20T01:52:22;9.70;;;5.27;;
2766;SDS011;1391;46.742;11.636;2022-12-20T01:54:55;8.43;;;5.40;;
2766;SDS011;1391;46.742;11.636;2022-12-20T01:57:32;9.50;;;5.50;;
2766;SDS011;1391;46.742;11.636;2022-12-20T02:00:07;8.17;;;5.27;;
2766;SDS011;1391;46.742;11.636;2022-12-20T02:02:36;12.00;;;5.60;;
2766;SDS011;1391;46.742;11.636;2022-12-20T02:05:04;9.77;;;5.53;;
2766;SDS011;1391;46.742;11.636;2022-12-20T02:07:33;10.40;;;5.33;;
2766;SDS011;1391;46.742;11.636;2022-12-20T02:10:03;10.47;;;5.53;;
2766;SDS011;1391;46.742;11.636;2022-12-20T02:12:36;11.07;;;5.43;;
2766;SDS011;1391;46.742;11.636;2022-12-20T02:15:23;9.50;;;5.67;;
2766;SDS011;1391;46.742;11.636;2022-12-20T02:18:05;9.97;;;5.73;;
2766;SDS011;1391;46.742;11.636;2022-12-20T02:20:45;11.43;;;5.50;;
2766;SDS011;1391;46.742;11.636;2022-12-20T02:27:14;14.37;;;6.90;;
2766;SDS011;1391;46.742;11.636;2022-12-20T02:30:17;7.80;;;5.37;;
2766;SDS011;1391;46.742;11.636;2022-12-20T02:32:54;10.70;;;5.40;;
2766;SDS011;1391;46.742;11.636;2022-12-20T02:35:26;9.67;;;5.43;;
2766;SDS011;1391;46.742;11.636;2022-12-20T02:37:57;11.53;;;5.37;;
2766;SDS011;1391;46.742;11.636;2022-12-20T02:40:31;10.57;;;4.67;;
2766;SDS011;1391;46.742;11.636;2022-12-20T02:43:03;8.83;;;5.30;;
2766;SDS011;1391;46.742;11.636;2022-12-20T02:45:55;8.80;;;5.27;;
2766;SDS011;1391;46.742;11.636;2022-12-20T02:48:24;11.80;;;6.70;;
2766;SDS011;1391;46.742;11.636;2022-12-20T02:50:53;8.70;;;4.83;;
2766;SDS011;1391;46.742;11.636;2022-12-20T02:53:24;7.87;;;4.77;;
2766;SDS011;1391;46.742;11.636;2022-12-20T02:55:54;9.07;;;5.60;;
2766;SDS011;1391;46.742;11.636;2022-12-20T02:58:27;7.87;;;4.83;;
2766;SDS011;1391;46.742;11.636;2022-12-20T03:01:17;9.77;;;5.13;;
2766;SDS011;1391;46.742;11.636;2022-12-20T03:03:49;10.47;;;5.50;;
2766;SDS011;1391;46.742;11.636;2022-12-20T03:06:18;7.97;;;5.13;;
2766;SDS011;1391;46.742;11.636;2022-12-20T03:08:46;8.07;;;4.80;;
2766;SDS011;1391;46.742;11.636;2022-12-20T03:11:13;14.43;;;5.40;;
2766;SDS011;1391;46.742;11.636;2022-12-20T03:13:40;11.20;;;5.27;;
2766;SDS011;1391;46.742;11.636;2022-12-20T03:16:08;11.23;;;5.20;;
2766;SDS011;1391;46.742;11.636;2022-12-20T03:18:40;11.63;;;6.17;;
2766;SDS011;1391;46.742;11.636;2022-12-20T03:21:09;10.10;;;5.23;;
2766;SDS011;1391;46.742;11.636;2022-12-20T03:23:36;7.20;;;4.93;;
2766;SDS011;1391;46.742;11.636;2022-12-20T03:26:04;9.93;;;4.63;;
2766;SDS011;1391;46.742;11.636;2022-12-20T03:28:31;9.13;;;5.47;;
2766;SDS011;1391;46.742;11.636;2022-12-20T03:30:58;7.77;;;4.63;;
2766;SDS011;1391;46.742;11.636;2022-12-20T03:33:26;10.93;;;5.30;;
2766;SDS011;1391;46.742;11.636;2022-12-20T03:35:54;9.40;;;5.30;;
2766;SDS011;1391;46.742;11.636;2022-12-20T03:38:22;10.17;;;5.30;;
2766;SDS011;1391;46.742;11.636;2022-12-20T03:40:49;7.13;;;4.60;;
2766;SDS011;1391;46.742;11.636;2022-12-20T03:43:16;9.33;;;5.40;;
2766;SDS011;1391;46.742;11.636;2022-12-20T03:45:43;8.77;;;4.90;;
2766;SDS011;1391;46.742;11.636;2022-12-20T03:48:11;8.10;;;5.00;;
2766;SDS011;1391;46.742;11.636;2022-12-20T03:50:38;9.83;;;4.93;;
2766;SDS011;1391;46.742;11.636;2022-12-20T03:53:09;8.37;;;4.83;;
2766;SDS011;1391;46.742;11.636;2022-12-20T03:55:36;10.17;;;5.33;;
2766;SDS011;1391;46.742;11.636;2022-12-20T03:58:04;10.53;;;5.43;;
2766;SDS011;1391;46.742;11.636;2022-12-20T04:00:31;10.37;;;5.77;;
2766;SDS011;1391;46.742;11.636;2022-12-20T04:02:59;9.60;;;5.10;;
2766;SDS011;1391;46.742;11.636;2022-12-20T04:05:26;8.57;;;5.30;;
2766;SDS011;1391;46.742;11.636;2022-12-20T04:07:53;9.30;;;5.50;;
2766;SDS011;1391;46.742;11.636;2022-12-20T04:10:22;9.43;;;5.53;;
2766;SDS011;1391;46.742;11.636;2022-12-20T04:12:50;6.57;;;4.60;;
2766;SDS011;1391;46.742;11.636;2022-12-20T04:15:18;10.37;;;5.17;;
2766;SDS011;1391;46.742;11.636;2022-12-20T04:17:45;7.83;;;5.13;;
2766;SDS011;1391;46.742;11.636;2022-12-20T04:20:13;8.20;;;4.53;;
2766;SDS011;1391;46.742;11.636;2022-12-20T04:22:45;8.73;;;4.70;;
2766;SDS011;1391;46.742;11.636;2022-12-20T04:25:12;8.43;;;5.07;;
2766;SDS011;1391;46.742;11.636;2022-12-20T04:27:42;13.33;;;5.47;;
2766;SDS011;1391;46.742;11.636;2022-12-20T04:30:09;9.63;;;5.47;;
2766;SDS011;1391;46.742;11.636;2022-12-20T04:32:38;11.57;;;6.27;;
2766;SDS011;1391;46.742;11.636;2022-12-20T04:35:06;9.63;;;5.23;;
2766;SDS011;1391;46.742;11.636;2022-12-20T04:37:34;11.93;;;5.57;;
2766;SDS011;1391;46.742;11.636;2022-12-20T04:40:01;8.07;;;5.17;;
2766;SDS011;1391;46.742;11.636;2022-12-20T04:42:29;12.00;;;5.97;;
2766;SDS011;1391;46.742;11.636;2022-12-20T04:44:58;9.80;;;5.63;;
2766;SDS011;1391;46.742;11.636;2022-12-20T04:47:25;9.27;;;5.53;;
2766;SDS011;1391;46.742;11.636;2022-12-20T04:49:58;10.67;;;6.00;;
2766;SDS011;1391;46.742;11.636;2022-12-20T04:52:25;10.70;;;5.83;;
2766;SDS011;1391;46.742;11.636;2022-12-20T04:55:10;9.73;;;5.10;;
2766;SDS011;1391;46.742;11.636;2022-12-20T04:57:40;8.53;;;5.30;;
2766;SDS011;1391;46.742;11.636;2022-12-20T05:00:09;9.20;;;4.90;;
2766;SDS011;1391;46.742;11.636;2022-12-20T05:02:39;7.67;;;5.10;;
2766;SDS011;1391;46.742;11.636;2022-12-20T05:05:08;8.60;;;5.23;;
2766;SDS011;1391;46.742;11.636;2022-12-20T05:07:40;9.00;;;4.93;;
2766;SDS011;1391;46.742;11.636;2022-12-20T05:10:07;7.57;;;4.00;;
2766;SDS011;1391;46.742;11.636;2022-12-20T05:12:35;8.27;;;4.90;;
2766;SDS011;1391;46.742;11.636;2022-12-20T05:15:03;10.07;;;5.03;;
2766;SDS011;1391;46.742;11.636;2022-12-20T05:17:33;10.93;;;5.00;;
2766;SDS011;1391;46.742;11.636;2022-12-20T05:20:00;9.73;;;5.63;;
2766;SDS011;1391;46.742;11.636;2022-12-20T05:22:27;9.40;;;5.37;;
2766;SDS011;1391;46.742;11.636;2022-12-20T05:25:09;8.53;;;4.97;;
2766;SDS011;1391;46.742;11.636;2022-12-20T05:27:54;11.03;;;5.17;;
2766;SDS011;1391;46.742;11.636;2022-12-20T05:30:21;9.93;;;5.33;;
2766;SDS011;1391;46.742;11.636;2022-12-20T05:32:50;10.27;;;5.47;;
2766;SDS011;1391;46.742;11.636;2022-12-20T05:35:17;7.83;;;5.43;;
2766;SDS011;1391;46.742;11.636;2022-12-20T05:37:45;10.57;;;6.40;;
2766;SDS011;1391;46.742;11.636;2022-12-20T05:40:12;10.47;;;6.47;;
2766;SDS011;1391;46.742;11.636;2022-12-20T05:42:41;7.50;;;5.50;;
2766;SDS011;1391;46.742;11.636;2022-12-20T05:45:09;10.43;;;5.40;;
2766;SDS011;1391;46.742;11.636;2022-12-20T05:47:36;7.93;;;5.23;;
2766;SDS011;1391;46.742;11.636;2022-12-20T05:50:06;11.33;;;5.43;;
2766;SDS011;1391;46.742;11.636;2022-12-20T05:52:35;10.07;;;5.50;;
2766;SDS011;1391;46.742;11.636;2022-12-20T05:55:02;8.87;;;5.23;;
2766;SDS011;1391;46.742;11.636;2022-12-20T05:57:30;8.80;;;5.53;;
2766;SDS011;1391;46.742;11.636;2022-12-20T05:59:58;9.03;;;5.53;;
2766;SDS011;1391;46.742;11.636;2022-12-20T06:02:25;9.27;;;5.47;;
2766;SDS011;1391;46.742;11.636;2022-12-20T06:04:52;9.50;;;5.60;;
2766;SDS011;1391;46.742;11.636;2022-12-20T06:07:21;10.77;;;6.47;;
2766;SDS011;1391;46.742;11.636;2022-12-20T06:09:49;8.63;;;5.77;;
2766;SDS011;1391;46.742;11.636;2022-12-20T06:12:16;7.23;;;4.73;;
2766;SDS011;1391;46.742;11.636;2022-12-20T06:14:43;9.63;;;5.07;;
2766;SDS011;1391;46.742;11.636;2022-12-20T06:17:11;7.20;;;5.00;;
2766;SDS011;1391;46.742;11.636;2022-12-20T06:19:38;10.23;;;4.90;;
2766;SDS011;1391;46.742;11.636;2022-12-20T06:22:06;9.60;;;5.77;;
2766;SDS011;1391;46.742;11.636;2022-12-20T06:24:37;13.40;;;6.10;;
2766;SDS011;1391;46.742;11.636;2022-12-20T06:27:04;7.73;;;5.43;;
2766;SDS011;1391;46.742;11.636;2022-12-20T06:29:32;9.13;;;6.10;;
2766;SDS011;1391;46.742;11.636;2022-12-20T06:32:01;14.13;;;6.40;;
2766;SDS011;1391;46.742;11.636;2022-12-20T06:34:30;10.50;;;5.70;;
2766;SDS011;1391;46.742;11.636;2022-12-20T06:36:57;10.43;;;5.33;;
2766;SDS011;1391;46.742;11.636;2022-12-20T06:39:25;8.83;;;4.93;;
2766;SDS011;1391;46.742;11.636;2022-12-20T06:41:53;8.50;;;5.40;;
2766;SDS011;1391;46.742;11.636;2022-12-20T06:44:21;8.50;;;5.40;;
2766;SDS011;1391;46.742;11.636;2022-12-20T06:46:48;11.00;;;6.00;;
2766;SDS011;1391;46.742;11.636;2022-12-20T06:49:15;9.87;;;6.03;;
2766;SDS011;1391;46.742;11.636;2022-12-20T06:51:42;7.67;;;5.40;;
2766;SDS011;1391;46.742;11.636;2022-12-20T06:54:10;7.87;;;4.93;;
2766;SDS011;1391;46.742;11.636;2022-12-20T06:56:37;16.10;;;5.77;;
2766;SDS011;1391;46.742;11.636;2022-12-20T06:59:06;8.40;;;4.63;;
2766;SDS011;1391;46.742;11.636;2022-12-20T07:01:33;10.00;;;4.97;;
2766;SDS011;1391;46.742;11.636;2022-12-20T07:04:00;12.30;;;5.70;;
2766;SDS011;1391;46.742;11.636;2022-12-20T07:06:28;11.40;;;6.17;;
2766;SDS011;1391;46.742;11.636;2022-12-20T07:08:55;12.00;;;6.10;;
2766;SDS011;1391;46.742;11.636;2022-12-20T07:11:22;8.53;;;5.80;;
2766;SDS011;1391;46.742;11.636;2022-12-20T07:13:53;10.87;;;5.53;;
2766;SDS011;1391;46.742;11.636;2022-12-20T07:16:22;10.73;;;5.17;;
2766;SDS011;1391;46.742;11.636;2022-12-20T07:18:50;15.27;;;8.27;;
2766;SDS011;1391;46.742;11.636;2022-12-20T07:21:18;59.33;;;25.20;;
2766;SDS011;1391;46.742;11.636;2022-12-20T07:23:46;65.97;;;26.00;;
2766;SDS011;1391;46.742;11.636;2022-12-20T07:26:14;50.73;;;22.93;;
2766;SDS011;1391;46.742;11.636;2022-12-20T07:28:41;32.33;;;15.60;;
2766;SDS011;1391;46.742;11.636;2022-12-20T07:31:08;26.47;;;12.57;;
2766;SDS011;1391;46.742;11.636;2022-12-20T07:33:37;26.13;;;12.00;;
2766;SDS011;1391;46.742;11.636;2022-12-20T07:36:05;17.80;;;8.73;;
2766;SDS011;1391;46.742;11.636;2022-12-20T07:38:36;12.33;;;6.47;;
2766;SDS011;1391;46.742;11.636;2022-12-20T07:41:07;11.40;;;6.83;;
2766;SDS011;1391;46.742;11.636;2022-12-20T07:43:36;11.10;;;5.70;;
2766;SDS011;1391;46.742;11.636;2022-12-20T07:46:04;9.57;;;5.07;;
2766;SDS011;1391;46.742;11.636;2022-12-20T07:48:33;12.03;;;6.03;;
2766;SDS011;1391;46.742;11.636;2022-12-20T07:51:03;10.87;;;5.47;;
2766;SDS011;1391;46.742;11.636;2022-12-20T07:53:34;9.57;;;5.80;;
2766;SDS011;1391;46.742;11.636;2022-12-20T07:56:04;8.90;;;5.90;;
2766;SDS011;1391;46.742;11.636;2022-12-20T07:58:33;9.60;;;5.23;;
2766;SDS011;1391;46.742;11.636;2022-12-20T08:01:03;9.73;;;6.43;;
2766;SDS011;1391;46.742;11.636;2022-12-20T08:03:31;11.77;;;6.17;;
2766;SDS011;1391;46.742;11.636;2022-12-20T08:06:05;10.10;;;5.93;;
2766;SDS011;1391;46.742;11.636;2022-12-20T08:08:35;10.77;;;6.20;;
2766;SDS011;1391;46.742;11.636;2022-12-20T08:11:07;9.93;;;5.83;;
2766;SDS011;1391;46.742;11.636;2022-12-20T08:13:36;7.93;;;5.23;;
2766;SDS011;1391;46.742;11.636;2022-12-20T08:16:04;10.77;;;4.93;;
2766;SDS011;1391;46.742;11.636;2022-12-20T08:18:32;9.53;;;6.10;;
2766;SDS011;1391;46.742;11.636;2022-12-20T08:21:00;11.57;;;6.57;;
2766;SDS011;1391;46.742;11.636;2022-12-20T08:23:28;14.73;;;6.60;;
2766;SDS011;1391;46.742;11.636;2022-12-20T08:25:55;14.73;;;7.80;;
2766;SDS011;1391;46.742;11.636;2022-12-20T08:28:26;12.43;;;6.63;;
2766;SDS011;1391;46.742;11.636;2022-12-20T08:30:59;10.33;;;6.20;;
2766;SDS011;1391;46.742;11.636;2022-12-20T08:33:27;12.20;;;6.97;;
2766;SDS011;1391;46.742;11.636;2022-12-20T08:35:58;10.53;;;6.17;;
2766;SDS011;1391;46.742;11.636;2022-12-20T08:38:26;10.67;;;6.77;;
2766;SDS011;1391;46.742;11.636;2022-12-20T08:41:00;10.57;;;7.33;;
2766;SDS011;1391;46.742;11.636;2022-12-20T08:43:28;13.50;;;6.93;;
2766;SDS011;1391;46.742;11.636;2022-12-20T08:45:55;12.77;;;7.17;;
2766;SDS011;1391;46.742;11.636;2022-12-20T08:48:22;14.20;;;6.87;;
2766;SDS011;1391;46.742;11.636;2022-12-20T08:50:53;17.03;;;8.77;;
2766;SDS011;1391;46.742;11.636;2022-12-20T08:53:21;22.93;;;11.77;;
2766;SDS011;1391;46.742;11.636;2022-12-20T08:55:50;21.47;;;11.93;;
2766;SDS011;1391;46.742;11.636;2022-12-20T08:58:18;21.93;;;10.03;;
2766;SDS011;1391;46.742;11.636;2022-12-20T09:00:46;16.97;;;10.73;;
2766;SDS011;1391;46.742;11.636;2022-12-20T09:03:13;20.57;;;11.90;;
2766;SDS011;1391;46.742;11.636;2022-12-20T09:05:44;20.00;;;10.47;;
2766;SDS011;1391;46.742;11.636;2022-12-20T09:08:13;17.73;;;10.77;;
2766;SDS011;1391;46.742;11.636;2022-12-20T09:10:41;21.63;;;9.37;;
2766;SDS011;1391;46.742;11.636;2022-12-20T09:13:10;16.47;;;8.23;;
2766;SDS011;1391;46.742;11.636;2022-12-20T09:15:37;10.43;;;7.00;;
2766;SDS011;1391;46.742;11.636;2022-12-20T09:18:04;12.53;;;7.20;;
2766;SDS011;1391;46.742;11.636;2022-12-20T09:20:32;15.63;;;9.63;;
2766;SDS011;1391;46.742;11.636;2022-12-20T09:22:59;15.60;;;7.97;;
2766;SDS011;1391;46.742;11.636;2022-12-20T09:25:26;15.87;;;8.33;;
2766;SDS011;1391;46.742;11.636;2022-12-20T09:27:54;19.70;;;10.47;;
2766;SDS011;1391;46.742;11.636;2022-12-20T09:30:23;21.87;;;10.73;;
2766;SDS011;1391;46.742;11.636;2022-12-20T09:32:50;23.83;;;11.97;;
2766;SDS011;1391;46.742;11.636;2022-12-20T09:35:17;18.93;;;11.13;;
2766;SDS011;1391;46.742;11.636;2022-12-20T09:37:44;22.83;;;12.07;;
2766;SDS011;1391;46.742;11.636;2022-12-20T09:40:13;21.23;;;11.63;;
2766;SDS011;1391;46.742;11.636;2022-12-20T09:42:45;24.37;;;11.20;;
2766;SDS011;1391;46.742;11.636;2022-12-20T09:45:23;22.97;;;11.30;;
2766;SDS011;1391;46.742;11.636;2022-12-20T09:47:53;22.37;;;12.40;;
2766;SDS011;1391;46.742;11.636;2022-12-20T09:50:25;18.40;;;11.63;;
2766;SDS011;1391;46.742;11.636;2022-12-20T09:53:06;24.50;;;11.93;;
2766;SDS011;1391;46.742;11.636;2022-12-20T09:55:42;24.83;;;11.27;;
2766;SDS011;1391;46.742;11.636;2022-12-20T09:58:25;23.83;;;12.63;;
2766;SDS011;1391;46.742;11.636;2022-12-20T10:01:16;21.57;;;10.83;;
2766;SDS011;1391;46.742;11.636;2022-12-20T10:03:46;20.63;;;11.23;;
2766;SDS011;1391;46.742;11.636;2022-12-20T10:06:16;23.07;;;10.20;;
2766;SDS011;1391;46.742;11.636;2022-12-20T10:08:56;16.57;;;9.53;;
2766;SDS011;1391;46.742;11.636;2022-12-20T10:14:27;20.27;;;9.60;;
2766;SDS011;1391;46.742;11.636;2022-12-20T10:17:14;14.27;;;8.03;;
2766;SDS011;1391;46.742;11.636;2022-12-20T10:22:45;11.10;;;7.37;;
2766;SDS011;1391;46.742;11.636;2022-12-20T10:25:20;16.57;;;6.87;;
2766;SDS011;1391;46.742;11.636;2022-12-20T10:27:49;10.73;;;7.90;;
2766;SDS011;1391;46.742;11.636;2022-12-20T10:30:22;18.70;;;8.87;;
2766;SDS011;1391;46.742;11.636;2022-12-20T10:32:54;14.63;;;8.57;;
2766;SDS011;1391;46.742;11.636;2022-12-20T10:35:24;15.17;;;8.80;;
2766;SDS011;1391;46.742;11.636;2022-12-20T10:38:00;10.63;;;7.73;;
2766;SDS011;1391;46.742;11.636;2022-12-20T10:40:30;17.33;;;7.93;;
2766;SDS011;1391;46.742;11.636;2022-12-20T10:43:00;13.30;;;7.60;;
2766;SDS011;1391;46.742;11.636;2022-12-20T10:45:31;13.10;;;6.87;;
2766;SDS011;1391;46.742;11.636;2022-12-20T10:48:04;13.00;;;7.40;;
2766;SDS011;1391;46.742;11.636;2022-12-20T10:50:49;11.70;;;6.53;;
2766;SDS011;1391;46.742;11.636;2022-12-20T10:53:22;11.00;;;6.80;;
2766;SDS011;1391;46.742;11.636;2022-12-20T10:55:51;11.13;;;6.33;;
2766;SDS011;1391;46.742;11.636;2022-12-20T10:58:21;8.03;;;6.13;;
2766;SDS011;1391;46.742;11.636;2022-12-20T11:01:04;13.40;;;7.60;;
2766;SDS011;1391;46.742;11.636;2022-12-20T11:03:49;12.00;;;7.07;;
2766;SDS011;1391;46.742;11.636;2022-12-20T11:06:20;15.60;;;8.40;;
2766;SDS011;1391;46.742;11.636;2022-12-20T11:08:50;10.00;;;6.97;;
2766;SDS011;1391;46.742;11.636;2022-12-20T11:11:18;10.77;;;7.30;;
2766;SDS011;1391;46.742;11.636;2022-12-20T11:13:48;12.60;;;7.40;;
2766;SDS011;1391;46.742;11.636;2022-12-20T11:16:22;11.60;;;6.00;;
2766;SDS011;1391;46.742;11.636;2022-12-20T11:18:57;8.80;;;5.20;;
2766;SDS011;1391;46.742;11.636;2022-12-20T11:21:39;14.17;;;6.10;;
2766;SDS011;1391;46.742;11.636;2022-12-20T11:24:12;12.23;;;7.10;;
2766;SDS011;1391;46.742;11.636;2022-12-20T11:26:53;11.97;;;5.90;;
2766;SDS011;1391;46.742;11.636;2022-12-20T11:29:47;10.43;;;5.73;;
2766;SDS011;1391;46.742;11.636;2022-12-20T11:32:37;10.27;;;5.73;;
2766;SDS011;1391;46.742;11.636;2022-12-20T11:35:43;12.93;;;5.27;;
2766;SDS011;1391;46.742;11.636;2022-12-20T11:38:22;10.00;;;5.60;;
2766;SDS011;1391;46.742;11.636;2022-12-20T11:41:07;12.73;;;5.27;;
2766;SDS011;1391;46.742;11.636;2022-12-20T11:43:56;11.53;;;5.10;;
2766;SDS011;1391;46.742;11.636;2022-12-20T11:46:41;6.70;;;4.67;;
2766;SDS011;1391;46.742;11.636;2022-12-20T11:49:35;12.70;;;4.90;;
2766;SDS011;1391;46.742;11.636;2022-12-20T11:52:34;9.20;;;4.77;;
2766;SDS011;1391;46.742;11.636;2022-12-20T11:55:12;7.60;;;4.30;;
2766;SDS011;1391;46.742;11.636;2022-12-20T11:57:47;7.97;;;4.47;;
2766;SDS011;1391;46.742;11.636;2022-12-20T12:00:23;8.70;;;4.03;;
2766;SDS011;1391;46.742;11.636;2022-12-20T12:02:52;5.83;;;4.20;;
2766;SDS011;1391;46.742;11.636;2022-12-20T12:05:25;7.77;;;4.03;;
2766;SDS011;1391;46.742;11.636;2022-12-20T12:08:02;7.13;;;4.07;;
2766;SDS011;1391;46.742;11.636;2022-12-20T12:10:38;6.43;;;3.83;;
2766;SDS011;1391;46.742;11.636;2022-12-20T12:13:11;7.00;;;4.87;;
2766;SDS011;1391;46.742;11.636;2022-12-20T12:15:46;9.93;;;6.20;;
2766;SDS011;1391;46.742;11.636;2022-12-20T12:18:21;8.30;;;5.43;;
2766;SDS011;1391;46.742;11.636;2022-12-20T12:20:51;8.37;;;6.10;;
2766;SDS011;1391;46.742;11.636;2022-12-20T12:23:28;13.70;;;7.37;;
2766;SDS011;1391;46.742;11.636;2022-12-20T12:26:03;10.63;;;6.53;;
2766;SDS011;1391;46.742;11.636;2022-12-20T12:28:36;7.80;;;5.30;;
2766;SDS011;1391;46.742;11.636;2022-12-20T12:31:05;8.00;;;5.03;;
2766;SDS011;1391;46.742;11.636;2022-12-20T12:33:41;7.90;;;4.53;;
2766;SDS011;1391;46.742;11.636;2022-12-20T12:36:27;12.83;;;5.20;;
2766;SDS011;1391;46.742;11.636;2022-12-20T12:45:21;10.83;;;5.83;;
2766;SDS011;1391;46.742;11.636;2022-12-20T12:47:53;13.83;;;5.60;;
2766;SDS011;1391;46.742;11.636;2022-12-20T12:50:25;8.40;;;4.73;;
2766;SDS011;1391;46.742;11.636;2022-12-20T12:52:55;9.77;;;4.70;;
2766;SDS011;1391;46.742;11.636;2022-12-20T12:55:36;6.87;;;4.30;;
2766;SDS011;1391;46.742;11.636;2022-12-20T12:58:14;9.37;;;5.10;;
2766;SDS011;1391;46.742;11.636;2022-12-20T13:01:03;9.00;;;4.93;;
2766;SDS011;1391;46.742;11.636;2022-12-20T13:03:39;7.77;;;5.13;;
2766;SDS011;1391;46.742;11.636;2022-12-20T13:06:53;10.13;;;4.50;;
2766;SDS011;1391;46.742;11.636;2022-12-20T13:09:35;11.80;;;5.13;;
2766;SDS011;1391;46.742;11.636;2022-12-20T13:18:24;9.03;;;6.07;;
2766;SDS011;1391;46.742;11.636;2022-12-20T13:23:44;13.30;;;6.43;;
2766;SDS011;1391;46.742;11.636;2022-12-20T13:29:24;11.47;;;6.43;;
2766;SDS011;1391;46.742;11.636;2022-12-20T13:31:53;13.27;;;6.50;;
2766;SDS011;1391;46.742;11.636;2022-12-20T13:34:37;11.73;;;6.10;;
2766;SDS011;1391;46.742;11.636;2022-12-20T13:37:26;9.20;;;5.80;;
2766;SDS011;1391;46.742;11.636;2022-12-20T13:39:54;10.17;;;6.43;;
2766;SDS011;1391;46.742;11.636;2022-12-20T13:45:10;22.13;;;12.70;;
2766;SDS011;1391;46.742;11.636;2022-12-20T13:47:41;16.93;;;11.20;;
2766;SDS011;1391;46.742;11.636;2022-12-20T13:50:23;39.63;;;21.43;;
2766;SDS011;1391;46.742;11.636;2022-12-20T13:52:56;23.60;;;10.80;;
2766;SDS011;1391;46.742;11.636;2022-12-20T13:55:25;14.53;;;8.33;;
2766;SDS011;1391;46.742;11.636;2022-12-20T13:58:06;8.40;;;5.47;;
2766;SDS011;1391;46.742;11.636;2022-12-20T14:00:40;9.23;;;5.47;;
2766;SDS011;1391;46.742;11.636;2022-12-20T14:03:13;9.40;;;5.47;;
2766;SDS011;1391;46.742;11.636;2022-12-20T14:05:50;8.67;;;5.70;;
2766;SDS011;1391;46.742;11.636;2022-12-20T14:08:24;11.47;;;5.67;;
2766;SDS011;1391;46.742;11.636;2022-12-20T14:10:54;9.47;;;5.57;;
2766;SDS011;1391;46.742;11.636;2022-12-20T14:13:32;9.40;;;5.47;;
2766;SDS011;1391;46.742;11.636;2022-12-20T14:16:08;7.63;;;4.80;;
2766;SDS011;1391;46.742;11.636;2022-12-20T14:18:40;7.17;;;4.83;;
2766;SDS011;1391;46.742;11.636;2022-12-20T14:21:12;7.83;;;5.33;;
2766;SDS011;1391;46.742;11.636;2022-12-20T14:23:40;8.97;;;5.93;;
2766;SDS011;1391;46.742;11.636;2022-12-20T14:26:10;8.13;;;4.63;;
2766;SDS011;1391;46.742;11.636;2022-12-20T14:28:40;7.80;;;4.93;;
2766;SDS011;1391;46.742;11.636;2022-12-20T14:31:22;6.80;;;4.27;;
2766;SDS011;1391;46.742;11.636;2022-12-20T14:33:59;10.07;;;5.60;;
2766;SDS011;1391;46.742;11.636;2022-12-20T14:36:29;7.33;;;4.50;;
2766;SDS011;1391;46.742;11.636;2022-12-20T14:38:57;8.50;;;4.10;;
2766;SDS011;1391;46.742;11.636;2022-12-20T14:41:32;9.20;;;6.03;;
2766;SDS011;1391;46.742;11.636;2022-12-20T14:44:03;8.93;;;5.03;;
2766;SDS011;1391;46.742;11.636;2022-12-20T14:46:46;6.63;;;4.43;;
2766;SDS011;1391;46.742;11.636;2022-12-20T14:49:16;7.03;;;4.87;;
2766;SDS011;1391;46.742;11.636;2022-12-20T14:51:48;7.57;;;4.10;;
2766;SDS011;1391;46.742;11.636;2022-12-20T14:54:17;12.33;;;5.30;;
2766;SDS011;1391;46.742;11.636;2022-12-20T14:56:48;11.97;;;5.70;;
2766;SDS011;1391;46.742;11.636;2022-12-20T14:59:21;10.60;;;6.40;;
2766;SDS011;1391;46.742;11.636;2022-12-20T15:01:53;10.73;;;6.73;;
2766;SDS011;1391;46.742;11.636;2022-12-20T15:04:22;17.30;;;7.93;;
2766;SDS011;1391;46.742;11.636;2022-12-20T15:06:57;17.27;;;10.30;;
2766;SDS011;1391;46.742;11.636;2022-12-20T15:09:24;14.83;;;8.13;;
2766;SDS011;1391;46.742;11.636;2022-12-20T15:11:53;19.93;;;9.90;;
2766;SDS011;1391;46.742;11.636;2022-12-20T15:14:27;15.80;;;8.60;;
2766;SDS011;1391;46.742;11.636;2022-12-20T15:17:02;14.57;;;8.17;;
2766;SDS011;1391;46.742;11.636;2022-12-20T15:19:35;21.03;;;8.53;;
2766;SDS011;1391;46.742;11.636;2022-12-20T15:22:03;13.10;;;7.37;;
2766;SDS011;1391;46.742;11.636;2022-12-20T15:24:30;13.87;;;8.47;;
2766;SDS011;1391;46.742;11.636;2022-12-20T15:26:58;11.77;;;5.60;;
2766;SDS011;1391;46.742;11.636;2022-12-20T15:29:26;7.30;;;4.80;;
2766;SDS011;1391;46.742;11.636;2022-12-20T15:31:57;8.90;;;5.47;;
2766;SDS011;1391;46.742;11.636;2022-12-20T15:34:33;12.97;;;5.23;;
2766;SDS011;1391;46.742;11.636;2022-12-20T15:37:02;13.77;;;6.10;;
2766;SDS011;1391;46.742;11.636;2022-12-20T15:39:30;9.33;;;4.93;;
2766;SDS011;1391;46.742;11.636;2022-12-20T15:41:59;6.53;;;3.57;;
2766;SDS011;1391;46.742;11.636;2022-12-20T15:44:29;6.30;;;3.40;;
2766;SDS011;1391;46.742;11.636;2022-12-20T15:46:57;8.93;;;3.93;;
2766;SDS011;1391;46.742;11.636;2022-12-20T15:49:28;9.77;;;5.40;;
2766;SDS011;1391;46.742;11.636;2022-12-20T15:51:57;11.87;;;6.73;;